Montserrat Primero — EA3573 — position and weather

sailwx.info

Track history (hours):
 
Tides and Currents Weather Stations Pressure Air Temp Water Temp Dewpoint Dewpoint Depression Visibility Wind Speed Wind Dir Waves Ship Positions

Montserrat Primero

Last reported at 2017-Dec-20 03:01 UTC. Time now 2018-Jun-22 11:30 UTC.
Position N 41°05' E 001°33'.
Warning: this ship's position is months out of date.

Length 25 m.

Type: Fishing. MMSI: 224010960.

Date/timePositionNaut miles runAvg speedWind from/ knotsBaromVisibWave heightAir tempDewpointWater temp
2017-Dec-20 03:01N 41°05' E 001°33'011.2
2017-Dec-20 03:00N 41°06' E 001°33'511.0
2017-Dec-20 02:30N 41°09' E 001°39'510.6
2017-Dec-20 02:00N 41°13' E 001°44'0 0.0
2017-Dec-19 16:17N 41°13' E 001°44'0 0.0
2017-Dec-19 06:34N 41°13' E 001°44'0 0.0
2017-Dec-19 06:30N 41°13' E 001°44'0 0.0
2017-Dec-19 06:00N 41°13' E 001°44'0 0.0
2017-Dec-18 15:41N 41°13' E 001°44'0 0.0
2017-Dec-18 15:30N 41°13' E 001°44'0 0.0
2017-Dec-18 15:00N 41°13' E 001°44'  
2017-Dec-15 14:35N 41°13' E 001°44'0 0.0
2017-Dec-15 14:30N 41°13' E 001°44'0 0.0
2017-Dec-15 06:41N 41°13' E 001°44'0 0.0
2017-Dec-15 06:30N 41°13' E 001°44'3 5.3
2017-Dec-15 06:00N 41°10' E 001°44'2 4.9
2017-Dec-15 05:30N 41°13' E 001°44'0 0.4
2017-Dec-15 05:00N 41°13' E 001°44'0 0.0
2017-Dec-15 04:31N 41°13' E 001°44'0 0.0
2017-Dec-14 15:50N 41°13' E 001°44'3 3.9
2017-Dec-14 15:00N 41°10' E 001°46'4 8.7
2017-Dec-14 14:30N 41°06' E 001°45'1 1.4
2017-Dec-14 14:00N 41°05' E 001°45'1 1.9
2017-Dec-14 13:30N 41°04' E 001°44'1 2.5
2017-Dec-14 12:59N 41°03' E 001°43'1 1.8
2017-Dec-14 12:20N 41°02' E 001°43'1 2.1
2017-Dec-14 11:59N 41°03' E 001°43'1 2.2
2017-Dec-14 11:30N 41°04' E 001°44'1 1.1
2017-Dec-14 10:59N 41°04' E 001°44'1 2.5
2017-Dec-14 10:25N 41°03' E 001°43'1 2.1
2017-Dec-14 09:55N 41°02' E 001°42'1 2.1
2017-Dec-14 09:29N 41°03' E 001°43'1 2.2
2017-Dec-14 09:00N 41°04' E 001°43'0 0.9
2017-Dec-14 08:30N 41°04' E 001°44'1 2.5
2017-Dec-14 07:57N 41°03' E 001°43'1 2.1
2017-Dec-14 07:28N 41°02' E 001°42'1 2.1
2017-Dec-14 07:00N 41°03' E 001°43'1 2.1
2017-Dec-14 06:31N 41°04' E 001°44'510.3
2017-Dec-14 06:01N 41°09' E 001°44'4 7.1
2017-Dec-14 05:30N 41°13' E 001°44'0 0.7
2017-Dec-14 05:00N 41°13' E 001°44'0 0.0
2017-Dec-13 16:32N 41°13' E 001°44'0 0.0
2017-Dec-13 16:30N 41°13' E 001°44'0 0.0
2017-Dec-13 15:23N 41°13' E 001°44'3 7.3
2017-Dec-13 15:00N 41°10' E 001°45'5 9.7
2017-Dec-13 14:30N 41°05' E 001°45'1 1.0
2017-Dec-13 14:00N 41°05' E 001°45'1 2.0
2017-Dec-13 13:30N 41°04' E 001°44'2 2.5
2017-Dec-13 12:52N 41°03' E 001°43'1 2.6
2017-Dec-13 12:26N 41°02' E 001°42'1 2.1
2017-Dec-13 12:00N 41°03' E 001°43'1 2.2
2017-Dec-13 11:30N 41°04' E 001°43'1 1.1
2017-Dec-13 11:00N 41°04' E 001°44'2 2.5
2017-Dec-13 10:21N 41°03' E 001°43'1 1.6
2017-Dec-13 09:52N 41°02' E 001°42'1 2.1
2017-Dec-13 09:29N 41°03' E 001°43'1 2.2
2017-Dec-13 08:59N 41°04' E 001°44'0 0.8
2017-Dec-13 08:30N 41°04' E 001°44'1 2.4
2017-Dec-13 07:57N 41°03' E 001°43'1 1.4
2017-Dec-13 07:21N 41°02' E 001°43'1 2.1
2017-Dec-13 07:00N 41°03' E 001°43'1 2.1
2017-Dec-13 06:30N 41°04' E 001°44'510.4
2017-Dec-13 06:00N 41°09' E 001°44'4 7.5
2017-Dec-13 05:30N 41°13' E 001°44'0 0.2
2017-Dec-13 05:00N 41°13' E 001°44'0 0.0
2017-Dec-13 04:30N 41°13' E 001°44'0 0.0
2017-Dec-12 16:27N 41°13' E 001°44'0 0.1
2017-Dec-12 16:00N 41°13' E 001°44'0 0.3
2017-Dec-12 15:31N 41°13' E 001°44'4 8.7
2017-Dec-12 15:00N 41°08' E 001°45'3 6.0
2017-Dec-12 14:31N 41°06' E 001°45'0 0.2
2017-Dec-12 14:00N 41°05' E 001°45'1 2.2
2017-Dec-12 13:28N 41°04' E 001°44'2 1.4
2017-Dec-12 12:05N 41°03' E 001°43'0 2.1
2017-Dec-12 11:58N 41°03' E 001°43'1 2.2
2017-Dec-12 11:29N 41°04' E 001°43'1 1.5
2017-Dec-12 11:00N 41°04' E 001°44'1 2.5
2017-Dec-12 10:29N 41°03' E 001°44'1 1.4
2017-Dec-12 09:46N 41°02' E 001°43'1 2.1
2017-Dec-12 09:29N 41°03' E 001°43'1 2.2
2017-Dec-12 09:00N 41°04' E 001°43'1 1.1
2017-Dec-12 08:30N 41°04' E 001°44'2 2.4
2017-Dec-12 07:53N 41°03' E 001°43'1 2.7
2017-Dec-12 07:30N 41°02' E 001°42'1 2.1
2017-Dec-12 06:58N 41°03' E 001°43'1 2.2
2017-Dec-12 06:30N 41°04' E 001°44'510.3
2017-Dec-12 06:00N 41°09' E 001°44'3 6.9
2017-Dec-12 05:30N 41°12' E 001°44'1 1.1
2017-Dec-12 05:01N 41°13' E 001°44'  
Track history (hours):
 
Tides and Currents Weather Stations Pressure Air Temp Water Temp Dewpoint Dewpoint Depression Visibility Wind Speed Wind Dir Waves Ship Positions

Montserrat Primero

Last reported at 2017-Dec-20 03:01 UTC. Time now 2018-Jun-22 11:30 UTC.
Position N 41°05' E 001°33'.
Warning: this ship's position is months out of date.

Length 25 m.

Type: Fishing. MMSI: 224010960.

Date/timePositionNaut miles runAvg speedWind from/ knotsBaromVisibWave heightAir tempDewpointWater temp
2017-Dec-20 03:01N 41°05' E 001°33'011.2
2017-Dec-20 03:00N 41°06' E 001°33'511.0
2017-Dec-20 02:30N 41°09' E 001°39'510.6
2017-Dec-20 02:00N 41°13' E 001°44'0 0.0
2017-Dec-19 16:17N 41°13' E 001°44'0 0.0
2017-Dec-19 06:34N 41°13' E 001°44'0 0.0
2017-Dec-19 06:30N 41°13' E 001°44'0 0.0
2017-Dec-19 06:00N 41°13' E 001°44'0 0.0
2017-Dec-18 15:41N 41°13' E 001°44'0 0.0
2017-Dec-18 15:30N 41°13' E 001°44'0 0.0
2017-Dec-18 15:00N 41°13' E 001°44'  
2017-Dec-15 14:35N 41°13' E 001°44'0 0.0
2017-Dec-15 14:30N 41°13' E 001°44'0 0.0
2017-Dec-15 06:41N 41°13' E 001°44'0 0.0
2017-Dec-15 06:30N 41°13' E 001°44'3 5.3
2017-Dec-15 06:00N 41°10' E 001°44'2 4.9
2017-Dec-15 05:30N 41°13' E 001°44'0 0.4
2017-Dec-15 05:00N 41°13' E 001°44'0 0.0
2017-Dec-15 04:31N 41°13' E 001°44'0 0.0
2017-Dec-14 15:50N 41°13' E 001°44'3 3.9
2017-Dec-14 15:00N 41°10' E 001°46'4 8.7
2017-Dec-14 14:30N 41°06' E 001°45'1 1.4
2017-Dec-14 14:00N 41°05' E 001°45'1 1.9
2017-Dec-14 13:30N 41°04' E 001°44'1 2.5
2017-Dec-14 12:59N 41°03' E 001°43'1 1.8
2017-Dec-14 12:20N 41°02' E 001°43'1 2.1
2017-Dec-14 11:59N 41°03' E 001°43'1 2.2
2017-Dec-14 11:30N 41°04' E 001°44'1 1.1
2017-Dec-14 10:59N 41°04' E 001°44'1 2.5
2017-Dec-14 10:25N 41°03' E 001°43'1 2.1
2017-Dec-14 09:55N 41°02' E 001°42'1 2.1
2017-Dec-14 09:29N 41°03' E 001°43'1 2.2
2017-Dec-14 09:00N 41°04' E 001°43'0 0.9
2017-Dec-14 08:30N 41°04' E 001°44'1 2.5
2017-Dec-14 07:57N 41°03' E 001°43'1 2.1
2017-Dec-14 07:28N 41°02' E 001°42'1 2.1
2017-Dec-14 07:00N 41°03' E 001°43'1 2.1
2017-Dec-14 06:31N 41°04' E 001°44'510.3
2017-Dec-14 06:01N 41°09' E 001°44'4 7.1
2017-Dec-14 05:30N 41°13' E 001°44'0 0.7
2017-Dec-14 05:00N 41°13' E 001°44'0 0.0
2017-Dec-13 16:32N 41°13' E 001°44'0 0.0
2017-Dec-13 16:30N 41°13' E 001°44'0 0.0
2017-Dec-13 15:23N 41°13' E 001°44'3 7.3
2017-Dec-13 15:00N 41°10' E 001°45'5 9.7
2017-Dec-13 14:30N 41°05' E 001°45'1 1.0
2017-Dec-13 14:00N 41°05' E 001°45'1 2.0
2017-Dec-13 13:30N 41°04' E 001°44'2 2.5
2017-Dec-13 12:52N 41°03' E 001°43'1 2.6
2017-Dec-13 12:26N 41°02' E 001°42'1 2.1
2017-Dec-13 12:00N 41°03' E 001°43'1 2.2
2017-Dec-13 11:30N 41°04' E 001°43'1 1.1
2017-Dec-13 11:00N 41°04' E 001°44'2 2.5
2017-Dec-13 10:21N 41°03' E 001°43'1 1.6
2017-Dec-13 09:52N 41°02' E 001°42'1 2.1
2017-Dec-13 09:29N 41°03' E 001°43'1 2.2
2017-Dec-13 08:59N 41°04' E 001°44'0 0.8
2017-Dec-13 08:30N 41°04' E 001°44'1 2.4
2017-Dec-13 07:57N 41°03' E 001°43'1 1.4
2017-Dec-13 07:21N 41°02' E 001°43'1 2.1
2017-Dec-13 07:00N 41°03' E 001°43'1 2.1
2017-Dec-13 06:30N 41°04' E 001°44'510.4
2017-Dec-13 06:00N 41°09' E 001°44'4 7.5
2017-Dec-13 05:30N 41°13' E 001°44'0 0.2
2017-Dec-13 05:00N 41°13' E 001°44'0 0.0
2017-Dec-13 04:30N 41°13' E 001°44'0 0.0
2017-Dec-12 16:27N 41°13' E 001°44'0 0.1
2017-Dec-12 16:00N 41°13' E 001°44'0 0.3
2017-Dec-12 15:31N 41°13' E 001°44'4 8.7
2017-Dec-12 15:00N 41°08' E 001°45'3 6.0
2017-Dec-12 14:31N 41°06' E 001°45'0 0.2
2017-Dec-12 14:00N 41°05' E 001°45'1 2.2
2017-Dec-12 13:28N 41°04' E 001°44'2 1.4
2017-Dec-12 12:05N 41°03' E 001°43'0 2.1
2017-Dec-12 11:58N 41°03' E 001°43'1 2.2
2017-Dec-12 11:29N 41°04' E 001°43'1 1.5
2017-Dec-12 11:00N 41°04' E 001°44'1 2.5
2017-Dec-12 10:29N 41°03' E 001°44'1 1.4
2017-Dec-12 09:46N 41°02' E 001°43'1 2.1
2017-Dec-12 09:29N 41°03' E 001°43'1 2.2
2017-Dec-12 09:00N 41°04' E 001°43'1 1.1
2017-Dec-12 08:30N 41°04' E 001°44'2 2.4
2017-Dec-12 07:53N 41°03' E 001°43'1 2.7
2017-Dec-12 07:30N 41°02' E 001°42'1 2.1
2017-Dec-12 06:58N 41°03' E 001°43'1 2.2
2017-Dec-12 06:30N 41°04' E 001°44'510.3
2017-Dec-12 06:00N 41°09' E 001°44'3 6.9
2017-Dec-12 05:30N 41°12' E 001°44'1 1.1
2017-Dec-12 05:01N 41°13' E 001°44'  

Dump ship's entire track history